createdAt,value
2022-07-26T00:02:48.756Z,25.83
2022-07-26T00:05:50.335Z,25.75
2022-07-26T00:08:52.274Z,25.75
2022-07-26T00:11:53.885Z,25.59
2022-07-26T00:14:55.315Z,25.58
2022-07-26T00:17:56.872Z,25.61
2022-07-26T00:20:58.525Z,25.58
2022-07-26T00:24:00.136Z,25.54
2022-07-26T00:27:01.559Z,25.59
2022-07-26T00:30:06.722Z,25.64
2022-07-26T00:33:08.176Z,25.68
2022-07-26T00:36:10.001Z,25.60
2022-07-26T00:39:11.738Z,25.55
2022-07-26T00:42:14.042Z,25.45
2022-07-26T00:45:16.467Z,25.57
2022-07-26T00:48:18.855Z,25.63
2022-07-26T00:51:20.922Z,25.62
2022-07-26T00:54:22.494Z,25.65
2022-07-26T00:57:24.074Z,25.51
2022-07-26T01:00:28.185Z,25.63
2022-07-26T01:03:36.471Z,25.72
2022-07-26T01:06:42.188Z,25.65
2022-07-26T01:09:44.524Z,25.58
2022-07-26T01:12:47.069Z,25.37
2022-07-26T01:15:48.895Z,25.32
2022-07-26T01:18:50.348Z,25.19
2022-07-26T01:21:51.905Z,25.22
2022-07-26T01:24:53.384Z,25.22
2022-07-26T01:27:54.897Z,25.18
2022-07-26T01:30:56.606Z,25.07
2022-07-26T01:33:58.231Z,25.00
2022-07-26T01:36:59.905Z,24.97
2022-07-26T01:40:01.693Z,24.78
2022-07-26T01:43:03.166Z,24.70
2022-07-26T01:46:07.185Z,24.69
2022-07-26T01:49:09.284Z,24.79
2022-07-26T01:52:10.863Z,24.82
2022-07-26T01:55:12.306Z,24.69
2022-07-26T01:58:13.939Z,24.77
2022-07-26T02:01:15.856Z,24.73
2022-07-26T02:04:56.005Z,24.62
2022-07-26T02:07:57.572Z,24.48
2022-07-26T02:11:03.588Z,24.41
2022-07-26T02:14:05.781Z,24.47
2022-07-26T02:17:07.556Z,24.36
2022-07-26T02:20:09.581Z,24.17
2022-07-26T02:23:12.028Z,23.94
2022-07-26T02:26:13.514Z,23.80
2022-07-26T02:29:14.949Z,23.96
2022-07-26T02:32:16.829Z,23.80
2022-07-26T02:35:18.401Z,23.57
2022-07-26T02:38:19.925Z,23.51
2022-07-26T02:41:21.397Z,23.43
2022-07-26T02:44:23.968Z,23.36
2022-07-26T02:47:25.598Z,23.36
2022-07-26T02:50:28.288Z,23.23
2022-07-26T02:53:29.721Z,23.23
2022-07-26T02:56:31.151Z,23.26
2022-07-26T02:59:32.598Z,23.18
2022-07-26T03:02:34.064Z,23.23
2022-07-26T03:05:35.504Z,23.14
2022-07-26T03:08:37.018Z,23.07
2022-07-26T03:11:38.571Z,23.10
2022-07-26T03:14:40.404Z,22.99
2022-07-26T03:17:41.883Z,22.78
2022-07-26T03:20:43.489Z,22.68
2022-07-26T03:23:44.912Z,22.73
2022-07-26T03:26:46.329Z,22.75
2022-07-26T03:29:47.800Z,22.89
2022-07-26T03:32:49.560Z,23.09
2022-07-26T03:35:50.990Z,23.02
2022-07-26T03:38:52.399Z,22.93
2022-07-26T03:41:53.809Z,22.99
2022-07-26T03:44:55.273Z,23.10
2022-07-26T03:47:56.692Z,23.25
2022-07-26T03:50:58.280Z,23.36
2022-07-26T03:54:00.428Z,23.43
2022-07-26T03:57:01.984Z,23.50
2022-07-26T04:00:03.888Z,23.55
2022-07-26T04:03:08.981Z,23.60
2022-07-26T04:06:10.854Z,23.63
2022-07-26T04:09:13.491Z,23.60
2022-07-26T04:12:14.913Z,23.51
2022-07-26T04:15:18.774Z,23.43
2022-07-26T04:18:20.453Z,23.43
2022-07-26T04:21:22.454Z,23.50
2022-07-26T04:24:25.350Z,23.43
2022-07-26T04:27:27.618Z,23.42
2022-07-26T04:30:29.554Z,23.48
2022-07-26T04:33:31.078Z,23.47
2022-07-26T04:36:32.871Z,23.43
2022-07-26T04:39:34.311Z,23.43
2022-07-26T04:42:36.575Z,23.45
2022-07-26T04:45:38.070Z,23.37
2022-07-26T04:48:39.647Z,23.49
2022-07-26T04:51:41.177Z,23.46
2022-07-26T04:54:42.662Z,23.31
2022-07-26T04:57:45.362Z,23.36
2022-07-26T05:04:10.789Z,23.40
2022-07-26T05:07:12.564Z,23.30
2022-07-26T05:10:16.020Z,23.23
2022-07-26T05:13:17.557Z,23.30
2022-07-26T05:16:31.388Z,23.27
2022-07-26T05:19:33.394Z,23.33
2022-07-26T05:22:35.984Z,23.29
2022-07-26T05:25:38.650Z,22.87
2022-07-26T05:28:40.490Z,22.88
2022-07-26T05:31:42.496Z,22.89
2022-07-26T05:34:43.953Z,22.87
2022-07-26T05:37:45.440Z,22.73
2022-07-26T05:40:50.463Z,22.88
2022-07-26T05:43:52.619Z,22.92
2022-07-26T05:46:54.074Z,23.02
2022-07-26T05:49:55.517Z,22.85
2022-07-26T05:52:56.916Z,22.76
2022-07-26T05:55:58.365Z,22.70
2022-07-26T05:58:59.815Z,22.86
2022-07-26T06:02:01.333Z,22.78
2022-07-26T06:05:02.936Z,22.75
2022-07-26T06:08:04.682Z,22.83
2022-07-26T06:11:06.356Z,22.86
2022-07-26T06:14:07.918Z,22.99
2022-07-26T06:17:09.630Z,22.84
2022-07-26T06:20:11.410Z,22.96
2022-07-26T06:23:13.396Z,22.87
2022-07-26T06:26:14.950Z,22.91
2022-07-26T06:29:16.371Z,22.93
2022-07-26T06:32:17.980Z,22.73
2022-07-26T06:35:19.966Z,22.66
2022-07-26T06:38:21.715Z,22.81
2022-07-26T06:41:23.251Z,23.05
2022-07-26T06:44:24.694Z,22.77
2022-07-26T06:47:27.134Z,22.77
2022-07-26T06:50:28.764Z,22.72
2022-07-26T06:53:30.367Z,22.91
2022-07-26T06:56:32.448Z,22.89
2022-07-26T06:59:34.113Z,22.83
2022-07-26T07:02:36.141Z,22.89
2022-07-26T07:05:37.544Z,22.67
2022-07-26T07:08:39.513Z,22.59
2022-07-26T07:11:44.375Z,22.73
2022-07-26T07:14:46.538Z,22.78
2022-07-26T07:17:48.596Z,22.75
2022-07-26T07:20:50.106Z,22.73
2022-07-26T07:23:51.561Z,22.70
2022-07-26T07:26:53.520Z,22.76
2022-07-26T07:29:56.721Z,22.61
2022-07-26T07:32:59.119Z,22.73
2022-07-26T07:36:00.559Z,22.97
2022-07-26T07:39:06.356Z,23.04
2022-07-26T07:42:09.202Z,23.08
2022-07-26T07:45:11.586Z,23.43
2022-07-26T07:48:13.022Z,23.33
2022-07-26T07:51:14.968Z,23.20
2022-07-26T07:54:18.311Z,23.09
2022-07-26T07:57:20.228Z,22.96
2022-07-26T08:00:27.046Z,22.85
2022-07-26T08:03:38.616Z,23.26
2022-07-26T08:06:41.748Z,23.20
2022-07-26T08:09:51.901Z,23.34
2022-07-26T08:12:53.325Z,23.79
2022-07-26T08:15:55.826Z,23.72
2022-07-26T08:18:58.592Z,23.94
2022-07-26T08:22:00.247Z,23.77
2022-07-26T08:25:02.877Z,23.82
2022-07-26T08:28:04.518Z,23.52
2022-07-26T08:31:06.316Z,23.47
2022-07-26T08:34:07.790Z,23.78
2022-07-26T08:37:17.834Z,24.18
2022-07-26T08:40:19.708Z,24.36
2022-07-26T08:43:21.134Z,24.50
2022-07-26T08:46:28.226Z,24.73
2022-07-26T08:49:29.909Z,24.89
2022-07-26T08:52:31.439Z,25.31
2022-07-26T08:55:50.585Z,25.39
2022-07-26T08:58:54.442Z,25.30
2022-07-26T09:02:01.850Z,25.22
2022-07-26T09:05:04.771Z,24.90
2022-07-26T09:08:27.766Z,24.90
2022-07-26T09:11:33.504Z,24.54
2022-07-26T09:14:39.384Z,24.61
2022-07-26T09:17:44.039Z,24.73
2022-07-26T09:20:47.176Z,24.75
2022-07-26T09:23:49.597Z,24.76
2022-07-26T09:26:59.814Z,24.85
2022-07-26T09:30:07.094Z,24.59
2022-07-26T09:33:08.525Z,24.95
2022-07-26T09:36:10.122Z,25.41
2022-07-26T09:39:11.841Z,25.45
2022-07-26T09:42:29.876Z,25.22
2022-07-26T09:45:34.122Z,25.28
2022-07-26T09:49:09.880Z,25.31
2022-07-26T09:51:59.307Z,25.27
2022-07-26T09:55:05.623Z,25.15
2022-07-26T09:58:07.459Z,25.27
2022-07-26T10:01:08.864Z,25.34
2022-07-26T10:04:11.453Z,25.27
2022-07-26T10:07:13.356Z,25.15
2022-07-26T10:10:21.013Z,25.20
2022-07-26T10:13:22.808Z,25.30
2022-07-26T10:16:30.456Z,25.45
2022-07-26T10:19:45.547Z,25.54
2022-07-26T10:22:50.229Z,25.42
2022-07-26T10:25:51.759Z,25.32
2022-07-26T10:28:53.260Z,25.41
2022-07-26T10:32:00.818Z,25.59
2022-07-26T10:35:29.722Z,25.45
2022-07-26T10:38:31.186Z,25.56
2022-07-26T10:41:40.185Z,25.39
2022-07-26T10:44:44.849Z,25.48
2022-07-26T10:48:12.236Z,25.53
2022-07-26T10:51:25.542Z,25.46
2022-07-26T10:54:26.966Z,25.32
2022-07-26T10:57:37.749Z,25.41
2022-07-26T11:00:39.303Z,25.55
2022-07-26T11:03:43.200Z,25.38
2022-07-26T11:06:45.580Z,25.41
2022-07-26T11:09:46.999Z,25.54
2022-07-26T11:12:48.417Z,25.48
2022-07-26T11:15:59.292Z,25.87
2022-07-26T11:19:21.766Z,26.07
2022-07-26T11:22:31.755Z,26.36
2022-07-26T11:25:33.233Z,26.10
2022-07-26T11:28:53.453Z,25.81
2022-07-26T11:32:00.108Z,26.08
2022-07-26T11:35:06.706Z,26.42
2022-07-26T11:38:12.197Z,26.13
2022-07-26T11:41:18.080Z,26.01
2022-07-26T11:44:21.674Z,25.99
2022-07-26T11:47:25.231Z,25.78
2022-07-26T11:50:27.928Z,26.18
2022-07-26T11:53:29.366Z,26.60
2022-07-26T11:56:32.359Z,27.05
2022-07-26T11:59:36.358Z,27.57
2022-07-26T12:02:37.983Z,27.65
2022-07-26T12:05:41.905Z,27.56
2022-07-26T12:08:56.334Z,27.81
2022-07-26T12:11:58.097Z,27.56
2022-07-26T12:15:01.971Z,27.76
2022-07-26T12:18:03.445Z,27.95
2022-07-26T12:21:09.303Z,27.94
2022-07-26T12:24:13.487Z,28.00
2022-07-26T12:27:19.561Z,27.93
2022-07-26T12:30:21.111Z,28.10
2022-07-26T12:33:22.631Z,27.89
2022-07-26T12:36:27.713Z,27.79
2022-07-26T12:39:30.080Z,28.06
2022-07-26T12:42:36.749Z,27.66
2022-07-26T12:45:38.470Z,27.47
2022-07-26T12:48:41.634Z,27.41
2022-07-26T12:51:43.158Z,27.29
2022-07-26T12:54:46.755Z,27.45
2022-07-26T12:57:49.443Z,27.42
2022-07-26T13:00:57.241Z,27.44
2022-07-26T13:04:00.763Z,27.29
2022-07-26T13:07:02.933Z,27.74
2022-07-26T13:10:31.721Z,28.51
2022-07-26T13:13:30.892Z,28.35
2022-07-26T13:16:32.340Z,28.13
2022-07-26T13:19:35.205Z,28.01
2022-07-26T13:22:36.685Z,27.68
2022-07-26T13:25:40.389Z,27.48
2022-07-26T13:28:42.146Z,27.33
2022-07-26T13:31:43.927Z,27.27
2022-07-26T13:34:45.530Z,27.24
2022-07-26T13:37:46.929Z,27.21
2022-07-26T13:40:50.329Z,26.86
2022-07-26T13:43:54.012Z,26.74
2022-07-26T13:46:55.413Z,26.57
2022-07-26T13:49:56.817Z,26.52
2022-07-26T13:52:58.331Z,26.46
2022-07-26T13:55:59.766Z,26.76
2022-07-26T13:59:01.185Z,26.80
2022-07-26T14:02:04.570Z,26.90
2022-07-26T14:05:06.479Z,26.90
2022-07-26T14:08:07.915Z,26.72
2022-07-26T14:11:09.417Z,26.65
2022-07-26T14:14:13.174Z,26.58
2022-07-26T14:17:14.890Z,26.57
2022-07-26T14:20:17.143Z,26.61
2022-07-26T14:23:18.785Z,26.76
2022-07-26T14:26:20.231Z,26.79
2022-07-26T14:29:21.641Z,26.67
2022-07-26T14:32:23.249Z,26.76
2022-07-26T14:35:25.571Z,26.86
2022-07-26T14:38:30.116Z,26.97
2022-07-26T14:41:31.805Z,27.17
2022-07-26T14:44:34.179Z,27.11
2022-07-26T14:47:46.134Z,27.11
2022-07-26T14:51:08.752Z,27.02
2022-07-26T14:54:09.885Z,27.12
2022-07-26T14:57:11.538Z,27.18
2022-07-26T15:00:15.967Z,27.18
2022-07-26T15:03:17.499Z,27.10
2022-07-26T15:06:18.923Z,27.29
2022-07-26T15:09:20.366Z,27.19
2022-07-26T15:12:21.837Z,27.23
2022-07-26T15:15:23.621Z,27.13
2022-07-26T15:18:25.230Z,26.98
2022-07-26T15:21:26.701Z,27.16
2022-07-26T15:24:28.734Z,27.27
2022-07-26T15:27:30.321Z,27.23
2022-07-26T15:30:32.944Z,27.26
2022-07-26T15:33:35.269Z,27.33
2022-07-26T15:36:36.845Z,27.58
2022-07-26T15:39:38.309Z,27.72
2022-07-26T15:42:42.496Z,27.78
2022-07-26T15:45:45.623Z,27.87
2022-07-26T15:48:47.304Z,27.81
2022-07-26T15:51:49.828Z,27.89
2022-07-26T15:54:52.751Z,27.81
2022-07-26T15:57:54.186Z,27.79
2022-07-26T16:00:56.529Z,27.87
2022-07-26T16:03:57.962Z,27.75
2022-07-26T16:06:59.387Z,27.88
2022-07-26T16:10:01.572Z,27.72
2022-07-26T16:13:03.693Z,27.62
2022-07-26T16:16:05.741Z,27.61
2022-07-26T16:19:07.388Z,27.70
2022-07-26T16:22:08.970Z,27.89
2022-07-26T16:25:13.508Z,27.56
2022-07-26T16:28:15.011Z,27.61
2022-07-26T16:31:16.797Z,27.56
2022-07-26T16:34:18.385Z,27.50
2022-07-26T16:37:19.844Z,27.41
2022-07-26T16:40:21.503Z,27.40
2022-07-26T16:43:23.106Z,27.46
2022-07-26T16:46:24.838Z,27.36
2022-07-26T16:49:26.612Z,27.31
2022-07-26T16:52:28.263Z,27.28
2022-07-26T16:55:30.340Z,27.23
2022-07-26T16:58:32.954Z,27.21
2022-07-26T17:01:34.464Z,27.20
2022-07-26T17:04:37.297Z,27.22
2022-07-26T17:07:38.756Z,27.29
2022-07-26T17:10:40.190Z,27.29
2022-07-26T17:13:41.692Z,27.34
2022-07-26T17:16:43.871Z,27.30
2022-07-26T17:19:45.435Z,27.50
2022-07-26T17:22:46.902Z,27.26
2022-07-26T17:25:48.309Z,27.24
2022-07-26T17:28:49.813Z,27.26
2022-07-26T17:31:51.237Z,27.41
2022-07-26T17:34:52.710Z,27.51
2022-07-26T17:37:55.972Z,27.46
2022-07-26T17:40:57.901Z,27.60
2022-07-26T17:44:02.762Z,27.61
2022-07-26T17:47:05.431Z,27.62
2022-07-26T17:50:36.511Z,27.30
2022-07-26T17:53:38.693Z,27.25
2022-07-26T17:56:40.096Z,27.19
2022-07-26T17:59:41.505Z,27.02
2022-07-26T18:02:43.086Z,26.92
2022-07-26T18:05:44.666Z,26.84
2022-07-26T18:08:46.113Z,26.93
2022-07-26T18:11:47.541Z,26.82
2022-07-26T18:14:48.962Z,26.79
2022-07-26T18:17:50.370Z,26.67
2022-07-26T18:20:52.505Z,26.61
2022-07-26T18:24:15.430Z,26.64
2022-07-26T18:27:16.001Z,26.46
2022-07-26T18:30:17.496Z,26.53
2022-07-26T18:33:18.921Z,26.59
2022-07-26T18:36:20.322Z,26.65
2022-07-26T18:39:21.722Z,26.66
2022-07-26T18:42:23.173Z,26.64
2022-07-26T18:45:24.866Z,26.65
2022-07-26T18:48:26.293Z,26.54
2022-07-26T18:51:29.670Z,26.47
2022-07-26T18:54:33.188Z,26.42
2022-07-26T18:57:36.036Z,26.39
2022-07-26T19:00:37.595Z,26.37
2022-07-26T19:03:39.049Z,26.39
2022-07-26T19:06:40.516Z,26.27
2022-07-26T19:09:42.111Z,26.14
2022-07-26T19:12:46.330Z,26.04
2022-07-26T19:15:49.982Z,25.97
2022-07-26T19:18:56.880Z,25.89
2022-07-26T19:21:58.869Z,25.84
2022-07-26T19:25:00.729Z,25.80
2022-07-26T19:28:02.198Z,25.64
2022-07-26T19:31:03.905Z,25.53
2022-07-26T19:34:05.562Z,25.40
2022-07-26T19:37:07.274Z,25.35
2022-07-26T19:40:09.271Z,25.24
2022-07-26T19:43:11.003Z,25.15
2022-07-26T19:46:12.518Z,25.10
2022-07-26T19:49:16.076Z,25.00
2022-07-26T19:52:17.829Z,24.97
2022-07-26T19:55:19.390Z,24.97
2022-07-26T19:58:20.829Z,24.92
2022-07-26T20:01:29.087Z,24.89
2022-07-26T20:04:30.774Z,24.83
2022-07-26T20:07:32.322Z,24.74
2022-07-26T20:10:33.813Z,24.72
2022-07-26T20:13:35.401Z,24.63
2022-07-26T20:16:37.024Z,24.58
2022-07-26T20:19:38.661Z,24.58
2022-07-26T20:22:40.499Z,24.53
2022-07-26T20:25:42.112Z,24.44
2022-07-26T20:28:43.570Z,24.12
2022-07-26T20:31:45.061Z,24.09
2022-07-26T20:34:46.600Z,24.00
2022-07-26T20:37:48.000Z,23.92
2022-07-26T20:40:49.628Z,23.77
2022-07-26T20:43:51.281Z,23.78
2022-07-26T20:46:52.741Z,23.68
2022-07-26T20:49:55.058Z,23.61
2022-07-26T20:52:59.837Z,23.48
2022-07-26T20:56:01.443Z,23.46
2022-07-26T20:59:03.035Z,23.40
2022-07-26T21:02:04.751Z,23.23
2022-07-26T21:05:07.004Z,23.17
2022-07-26T21:08:08.466Z,23.19
2022-07-26T21:11:09.987Z,23.29
2022-07-26T21:14:11.642Z,23.34
2022-07-26T21:17:13.193Z,23.34
2022-07-26T21:20:14.716Z,23.31
2022-07-26T21:23:19.038Z,23.29
2022-07-26T21:26:21.650Z,23.29
2022-07-26T21:29:23.168Z,23.28
2022-07-26T21:32:29.613Z,23.32
2022-07-26T21:35:32.881Z,23.27
2022-07-26T21:38:34.376Z,23.20
2022-07-26T21:41:36.213Z,23.16
2022-07-26T21:44:37.678Z,23.15
2022-07-26T21:47:39.196Z,23.11
2022-07-26T21:50:40.810Z,23.04
2022-07-26T21:53:42.325Z,22.85
2022-07-26T21:56:43.797Z,22.73
2022-07-26T21:59:45.254Z,22.69
2022-07-26T22:02:46.830Z,22.81
2022-07-26T22:05:48.742Z,22.78
2022-07-26T22:08:50.319Z,22.77
2022-07-26T22:11:51.734Z,22.75
2022-07-26T22:14:53.206Z,22.70
2022-07-26T22:17:55.044Z,22.67
2022-07-26T22:20:56.726Z,22.62
2022-07-26T22:23:58.188Z,22.57
2022-07-26T22:26:59.646Z,22.53
2022-07-26T22:30:02.144Z,22.54
2022-07-26T22:33:07.832Z,22.53
2022-07-26T22:36:09.724Z,22.55
2022-07-26T22:39:11.538Z,22.50
2022-07-26T22:42:15.704Z,22.45
2022-07-26T22:45:17.729Z,22.34
2022-07-26T22:48:19.239Z,22.32
2022-07-26T22:51:20.726Z,22.29
2022-07-26T22:54:22.193Z,22.31
2022-07-26T22:57:23.610Z,22.19
2022-07-26T23:00:25.295Z,22.16
2022-07-26T23:03:26.800Z,22.10
2022-07-26T23:06:31.810Z,22.10
2022-07-26T23:09:34.032Z,22.03
2022-07-26T23:12:35.811Z,22.01
2022-07-26T23:15:37.231Z,22.00
2022-07-26T23:18:38.659Z,22.05
2022-07-26T23:21:40.208Z,22.04
2022-07-26T23:24:43.649Z,22.09
2022-07-26T23:27:45.610Z,22.07
2022-07-26T23:30:47.052Z,22.04
2022-07-26T23:33:51.301Z,21.95
2022-07-26T23:36:55.614Z,21.96
2022-07-26T23:39:57.029Z,21.92
2022-07-26T23:42:58.574Z,21.93
2022-07-26T23:46:00.136Z,21.98
2022-07-26T23:49:03.399Z,21.94
2022-07-26T23:52:05.176Z,21.91
2022-07-26T23:55:07.233Z,21.83
2022-07-26T23:58:12.046Z,21.82
